Time;durP1;ratioP1;P1;durP2;ratioP2;P2;SDS_P1;SDS_P2;PMS_P1;PMS_P2;Temp;Humidity;BMP_temperature;BMP_pressure;BME280_temperature;BME280_humidity;BME280_pressure;Samples;Min_cycle;Max_cycle;Signal;HPM_P1;HPM_P2
2022/01/22 00:00:49;;;;;;;3.92;1.90;;;;;;;;;;5094116;28;20584;-46
2022/01/22 00:03:15;;;;;;;3.65;1.92;;;;;;;;;;5107410;28;20779;-45
2022/01/22 00:05:41;;;;;;;4.80;2.47;;;;;;;;;;5113739;28;20178;-45
2022/01/22 00:08:07;;;;;;;3.95;2.28;;;;;;;;;;5113092;28;20674;-45
2022/01/22 00:10:34;;;;;;;3.88;1.90;;;;;;;;;;5092776;28;20176;-45
2022/01/22 00:15:26;;;;;;;3.78;1.63;;;;;;;;;;5092794;28;20186;-45
2022/01/22 00:17:52;;;;;;;5.15;2.08;;;;;;;;;;5093777;28;20169;-45
2022/01/22 00:20:20;;;;;;;4.63;2.38;;;;;;;;;;5107853;28;20212;-46
2022/01/22 00:22:46;;;;;;;3.08;1.90;;;;;;;;;;5113127;28;20571;-45
2022/01/22 00:25:13;;;;;;;3.53;2.10;;;;;;;;;;5116300;28;20172;-45
2022/01/22 00:27:39;;;;;;;4.78;1.80;;;;;;;;;;5097519;28;20451;-45
2022/01/22 00:30:07;;;;;;;3.92;1.95;;;;;;;;;;5096888;28;20197;-46
2022/01/22 00:32:33;;;;;;;4.90;2.08;;;;;;;;;;5097084;28;20205;-46
2022/01/22 00:34:59;;;;;;;4.88;2.22;;;;;;;;;;5096803;28;20192;-46
2022/01/22 00:37:24;;;;;;;2.67;1.70;;;;;;;;;;5093126;28;20198;-46
2022/01/22 00:39:50;;;;;;;3.47;1.80;;;;;;;;;;5085460;28;20179;-46
2022/01/22 00:42:17;;;;;;;3.90;2.05;;;;;;;;;;5103180;28;20263;-46
2022/01/22 00:44:43;;;;;;;3.33;1.58;;;;;;;;;;5101867;28;20197;-46
2022/01/22 00:47:10;;;;;;;4.13;1.60;;;;;;;;;;5102416;28;20189;-45
2022/01/22 00:49:36;;;;;;;3.67;1.70;;;;;;;;;;5096864;28;20525;-46
2022/01/22 00:52:04;;;;;;;2.38;1.50;;;;;;;;;;5096718;28;20203;-46
2022/01/22 00:54:30;;;;;;;2.30;1.50;;;;;;;;;;5096473;28;20174;-45
2022/01/22 00:56:55;;;;;;;3.30;1.70;;;;;;;;;;5088477;28;20197;-46
2022/01/22 00:59:21;;;;;;;3.40;1.60;;;;;;;;;;5099096;28;20217;-46
2022/01/22 01:01:47;;;;;;;2.38;1.48;;;;;;;;;;5111621;28;20564;-46
2022/01/22 01:04:13;;;;;;;2.22;1.55;;;;;;;;;;5101991;28;20235;-46
2022/01/22 01:06:39;;;;;;;4.97;1.48;;;;;;;;;;5096683;28;20170;-46
2022/01/22 01:09:08;;;;;;;3.35;1.42;;;;;;;;;;5092742;28;20487;-46
2022/01/22 01:11:38;;;;;;;2.47;1.60;;;;;;;;;;5094960;28;20584;-46
2022/01/22 01:14:08;;;;;;;2.97;1.55;;;;;;;;;;5095672;28;20561;-46
2022/01/22 01:35:44;;;;;;;1.73;1.25;;;;;;;;;;5068466;28;20480;-46
2022/01/22 01:38:10;;;;;;;2.78;1.52;;;;;;;;;;5088739;28;20201;-45
2022/01/22 01:40:40;;;;;;;2.00;1.50;;;;;;;;;;5101605;28;20177;-45
2022/01/22 01:43:18;;;;;;;3.88;1.23;;;;;;;;;;5108144;28;20195;-45
2022/01/22 01:45:44;;;;;;;1.67;1.15;;;;;;;;;;5116503;28;20283;-45
2022/01/22 01:48:16;;;;;;;2.25;1.25;;;;;;;;;;5101327;28;20602;-44
2022/01/22 01:50:43;;;;;;;2.50;1.30;;;;;;;;;;5099235;28;20204;-44
2022/01/22 01:53:16;;;;;;;3.00;1.20;;;;;;;;;;5096742;28;20166;-44
2022/01/22 01:58:25;;;;;;;1.48;1.00;;;;;;;;;;5077467;28;20266;-44
2022/01/22 02:00:52;;;;;;;1.70;1.10;;;;;;;;;;5095524;28;20181;-44
2022/01/22 02:03:18;;;;;;;1.33;0.95;;;;;;;;;;5095744;28;20186;-44
2022/01/22 02:05:44;;;;;;;1.05;0.95;;;;;;;;;;5095761;28;20484;-44
2022/01/22 02:08:12;;;;;;;3.03;1.27;;;;;;;;;;5097439;28;20192;-44
2022/01/22 02:10:44;;;;;;;1.23;0.93;;;;;;;;;;5105371;28;20485;-44
2022/01/22 02:24:12;;;;;;;2.25;0.90;;;;;;;;;;5095200;28;20192;-44
2022/01/22 02:26:38;;;;;;;1.13;1.02;;;;;;;;;;5095018;28;20166;-44
2022/01/22 02:29:04;;;;;;;1.02;0.93;;;;;;;;;;5095694;28;20542;-44
2022/01/22 02:31:41;;;;;;;1.42;0.98;;;;;;;;;;5094015;28;20590;-44
2022/01/22 02:36:46;;;;;;;2.55;0.90;;;;;;;;;;5086752;28;20181;-44
2022/01/22 02:39:20;;;;;;;1.27;1.00;;;;;;;;;;5090902;28;20580;-44
2022/01/22 02:41:49;;;;;;;3.08;0.88;;;;;;;;;;5094447;28;20306;-44
2022/01/22 02:44:32;;;;;;;0.98;0.90;;;;;;;;;;5095275;28;20216;-45
2022/01/22 02:46:59;;;;;;;2.05;1.00;;;;;;;;;;5100889;28;20201;-45
2022/01/22 02:49:25;;;;;;;1.30;0.85;;;;;;;;;;5102457;28;20263;-45
2022/01/22 02:51:51;;;;;;;1.58;0.85;;;;;;;;;;5094330;28;20232;-44
2022/01/22 02:54:17;;;;;;;1.25;0.85;;;;;;;;;;5093516;28;20274;-44
2022/01/22 02:56:43;;;;;;;2.03;0.70;;;;;;;;;;5088444;28;20186;-45
2022/01/22 02:59:09;;;;;;;1.75;0.80;;;;;;;;;;5090786;28;20202;-45
2022/01/22 03:01:35;;;;;;;0.77;0.77;;;;;;;;;;5095187;28;20903;-45
2022/01/22 03:04:01;;;;;;;0.95;0.65;;;;;;;;;;5094003;28;20177;-45
2022/01/22 03:06:27;;;;;;;1.00;0.90;;;;;;;;;;5094522;28;20186;-45
2022/01/22 03:08:53;;;;;;;1.02;0.63;;;;;;;;;;5102087;28;20260;-45
2022/01/22 03:11:23;;;;;;;0.90;0.90;;;;;;;;;;5094063;28;20262;-45
2022/01/22 03:14:25;;;;;;;0.60;0.60;;;;;;;;;;5094274;28;20185;-44
2022/01/22 03:16:52;;;;;;;0.88;0.68;;;;;;;;;;5095095;28;20190;-45
2022/01/22 03:20:36;;;;;;;0.88;0.60;;;;;;;;;;5093412;28;20452;-45
2022/01/22 03:22:32;;;;;;;0.95;0.55;;;;;;;;;;5088821;28;20193;-46
2022/01/22 03:27:42;;;;;;;0.95;0.68;;;;;;;;;;5082086;28;20477;-45
2022/01/22 03:30:08;;;;;;;0.70;0.65;;;;;;;;;;5093153;28;20174;-45
2022/01/22 03:32:40;;;;;;;0.95;0.65;;;;;;;;;;5094276;28;20205;-46
2022/01/22 03:37:36;;;;;;;1.05;0.70;;;;;;;;;;5106214;28;20289;-45
2022/01/22 03:40:03;;;;;;;0.60;0.50;;;;;;;;;;5093424;28;20182;-45
2022/01/22 03:42:29;;;;;;;1.00;0.88;;;;;;;;;;5093989;28;20174;-45
2022/01/22 03:44:55;;;;;;;0.60;0.60;;;;;;;;;;5093696;28;20193;-45
2022/01/22 03:47:20;;;;;;;0.80;0.60;;;;;;;;;;5097645;28;20241;-45
2022/01/22 03:49:46;;;;;;;0.60;0.60;;;;;;;;;;5098685;28;20185;-45
2022/01/22 03:52:12;;;;;;;0.65;0.63;;;;;;;;;;5084389;28;20194;-45
2022/01/22 03:54:38;;;;;;;0.88;0.60;;;;;;;;;;5093766;28;20157;-45
2022/01/22 03:57:05;;;;;;;0.45;0.45;;;;;;;;;;5093692;28;20185;-45
2022/01/22 03:59:31;;;;;;;0.70;0.65;;;;;;;;;;5093134;28;20182;-45
2022/01/22 04:03:01;;;;;;;0.50;0.50;;;;;;;;;;5092526;28;20216;-45
2022/01/22 04:04:51;;;;;;;0.50;0.50;;;;;;;;;;5084971;28;20181;-45
2022/01/22 04:10:04;;;;;;;0.60;0.60;;;;;;;;;;5089526;28;20281;-46
2022/01/22 04:15:04;;;;;;;0.95;0.47;;;;;;;;;;5096125;28;20184;-45
2022/01/22 04:25:27;;;;;;;0.55;0.55;;;;;;;;;;5093813;28;20188;-45
2022/01/22 04:27:54;;;;;;;0.68;0.32;;;;;;;;;;5095096;28;20600;-45
2022/01/22 04:30:20;;;;;;;0.80;0.50;;;;;;;;;;5092204;28;20610;-45
2022/01/22 04:32:46;;;;;;;0.40;0.40;;;;;;;;;;5088906;28;20209;-45
2022/01/22 04:35:12;;;;;;;1.13;0.57;;;;;;;;;;5095998;28;20228;-45
2022/01/22 04:37:38;;;;;;;0.85;0.50;;;;;;;;;;5092895;28;20194;-45
2022/01/22 04:40:05;;;;;;;0.95;0.43;;;;;;;;;;5093138;28;20209;-45
2022/01/22 04:42:33;;;;;;;0.47;0.47;;;;;;;;;;5072885;28;20231;-45
2022/01/22 04:45:06;;;;;;;0.75;0.63;;;;;;;;;;5096532;28;20166;-45
2022/01/22 04:47:46;;;;;;;0.43;0.40;;;;;;;;;;5093165;28;20174;-45
2022/01/22 04:55:39;;;;;;;0.60;0.50;;;;;;;;;;5092758;28;20185;-45
2022/01/22 04:58:05;;;;;;;0.93;0.43;;;;;;;;;;5095007;28;20196;-44
2022/01/22 05:00:33;;;;;;;0.52;0.50;;;;;;;;;;5093019;28;20181;-44
2022/01/22 05:02:59;;;;;;;0.32;0.32;;;;;;;;;;5093200;28;20197;-44
2022/01/22 05:05:25;;;;;;;0.50;0.40;;;;;;;;;;5094653;28;20265;-45
2022/01/22 05:07:52;;;;;;;0.30;0.30;;;;;;;;;;5079104;28;20639;-45
2022/01/22 05:10:18;;;;;;;0.50;0.50;;;;;;;;;;5096292;28;20477;-44
2022/01/22 05:12:44;;;;;;;0.30;0.30;;;;;;;;;;5096899;28;20257;-44
2022/01/22 05:15:10;;;;;;;0.30;0.30;;;;;;;;;;5095731;28;20181;-44
2022/01/22 05:17:39;;;;;;;0.98;0.30;;;;;;;;;;5094468;28;20189;-44
2022/01/22 05:20:12;;;;;;;0.40;0.40;;;;;;;;;;5106638;28;20261;-44
2022/01/22 05:25:08;;;;;;;0.70;0.60;;;;;;;;;;5096518;28;20755;-44
2022/01/22 05:27:50;;;;;;;0.47;0.30;;;;;;;;;;5095790;28;20162;-44
2022/01/22 05:33:27;;;;;;;1.15;0.47;;;;;;;;;;5096072;28;20251;-47
2022/01/22 05:38:33;;;;;;;3.72;1.00;;;;;;;;;;5091953;28;20197;-49
2022/01/22 05:40:59;;;;;;;2.03;0.70;;;;;;;;;;5097605;28;20174;-48
2022/01/22 05:43:25;;;;;;;1.33;0.90;;;;;;;;;;5107009;28;20532;-48
2022/01/22 06:53:22;;;;;;;7.30;1.70;;;;;;;;;;5063158;28;20574;-50
2022/01/22 06:55:56;;;;;;;6.85;1.52;;;;;;;;;;5063020;28;20236;-49
2022/01/22 06:58:22;;;;;;;4.60;2.28;;;;;;;;;;5060160;28;20194;-50
2022/01/22 07:00:48;;;;;;;9.40;3.75;;;;;;;;;;5048035;28;20186;-48
2022/01/22 07:03:14;;;;;;;5.68;3.40;;;;;;;;;;5045191;28;20211;-50
2022/01/22 07:05:40;;;;;;;11.85;4.40;;;;;;;;;;5054586;28;20553;-50
2022/01/22 07:08:06;;;;;;;16.60;4.82;;;;;;;;;;5031548;28;20194;-48
2022/01/22 07:10:32;;;;;;;11.10;5.55;;;;;;;;;;5066659;28;20213;-47
2022/01/22 07:12:58;;;;;;;9.95;5.15;;;;;;;;;;5063644;28;20731;-50
2022/01/22 07:15:24;;;;;;;11.68;5.20;;;;;;;;;;5031237;28;20183;-51
2022/01/22 07:17:50;;;;;;;9.48;5.43;;;;;;;;;;5041026;28;20179;-49
2022/01/22 07:20:24;;;;;;;12.35;5.28;;;;;;;;;;5051012;28;20561;-50
2022/01/22 07:22:53;;;;;;;11.90;5.57;;;;;;;;;;5050363;28;20250;-48
2022/01/22 07:25:19;;;;;;;9.82;5.45;;;;;;;;;;5056916;28;20214;-50
2022/01/22 07:27:46;;;;;;;8.23;5.15;;;;;;;;;;5070262;28;20179;-50
2022/01/22 07:30:12;;;;;;;11.77;5.65;;;;;;;;;;5056574;28;20225;-49
2022/01/22 07:32:42;;;;;;;7.72;4.78;;;;;;;;;;5030414;28;20464;-50
2022/01/22 07:35:08;;;;;;;11.30;5.00;;;;;;;;;;5045045;28;20194;-49
2022/01/22 07:37:36;;;;;;;9.02;4.97;;;;;;;;;;5057522;28;20222;-51
2022/01/22 07:40:02;;;;;;;10.07;5.22;;;;;;;;;;5064313;28;20190;-48
2022/01/22 07:42:28;;;;;;;9.25;4.90;;;;;;;;;;5057287;28;20167;-48
2022/01/22 07:44:54;;;;;;;8.48;4.40;;;;;;;;;;5050345;28;20561;-52
2022/01/22 07:47:20;;;;;;;9.52;4.47;;;;;;;;;;5047687;28;20500;-49
2022/01/22 07:49:46;;;;;;;7.75;4.57;;;;;;;;;;5029975;28;20219;-49
2022/01/22 07:52:12;;;;;;;12.63;4.65;;;;;;;;;;5030142;28;20215;-53
2022/01/22 07:54:38;;;;;;;8.60;4.15;;;;;;;;;;5043197;28;20223;-50
2022/01/22 07:57:04;;;;;;;8.57;4.22;;;;;;;;;;5056499;28;20214;-52
2022/01/22 07:59:31;;;;;;;8.25;4.40;;;;;;;;;;5056366;28;20596;-50
2022/01/22 08:01:57;;;;;;;8.55;3.30;;;;;;;;;;5053343;28;20912;-49
2022/01/22 08:04:26;;;;;;;7.10;3.55;;;;;;;;;;5037815;28;20196;-47
2022/01/22 08:06:52;;;;;;;5.65;3.67;;;;;;;;;;5040532;28;20240;-48
2022/01/22 08:09:19;;;;;;;6.95;3.45;;;;;;;;;;5036064;28;20202;-48
2022/01/22 08:11:45;;;;;;;9.77;3.70;;;;;;;;;;5056277;28;20202;-46
2022/01/22 08:14:11;;;;;;;8.80;3.40;;;;;;;;;;5039574;28;20454;-46
2022/01/22 08:16:37;;;;;;;4.63;2.88;;;;;;;;;;5036237;28;20172;-46
2022/01/22 08:19:04;;;;;;;6.97;3.65;;;;;;;;;;5035904;28;20184;-49
2022/01/22 08:21:30;;;;;;;6.63;3.03;;;;;;;;;;5032330;28;20188;-49
2022/01/22 08:23:56;;;;;;;10.27;3.28;;;;;;;;;;5032896;28;20180;-49
2022/01/22 08:26:27;;;;;;;5.82;3.05;;;;;;;;;;5025868;28;20188;-50
2022/01/22 08:28:53;;;;;;;5.80;2.92;;;;;;;;;;5023868;28;20186;-50
2022/01/22 08:31:27;;;;;;;4.63;2.90;;;;;;;;;;5033959;28;20874;-50
2022/01/22 08:36:39;;;;;;;6.63;2.80;;;;;;;;;;5036358;28;20183;-49
2022/01/22 08:39:05;;;;;;;5.47;2.47;;;;;;;;;;5035778;28;20558;-49
2022/01/22 08:41:31;;;;;;;8.38;2.95;;;;;;;;;;5036723;28;20239;-49
2022/01/22 08:43:58;;;;;;;8.05;2.42;;;;;;;;;;5032814;28;20202;-49
2022/01/22 08:46:24;;;;;;;3.58;2.40;;;;;;;;;;5035987;28;20218;-49
2022/01/22 08:48:50;;;;;;;4.88;2.70;;;;;;;;;;5040259;28;20179;-49
2022/01/22 08:51:16;;;;;;;4.72;2.40;;;;;;;;;;5034628;28;20196;-49
2022/01/22 08:53:42;;;;;;;6.10;2.65;;;;;;;;;;5032540;28;20180;-50
2022/01/22 08:56:09;;;;;;;5.82;2.13;;;;;;;;;;5021056;28;20189;-50
2022/01/22 08:58:35;;;;;;;3.05;2.15;;;;;;;;;;5040515;28;20606;-50
2022/01/22 09:01:01;;;;;;;4.72;2.20;;;;;;;;;;5042921;28;20191;-50
2022/01/22 09:03:27;;;;;;;4.65;2.40;;;;;;;;;;5033952;28;20298;-50
2022/01/22 09:05:54;;;;;;;5.43;2.25;;;;;;;;;;5043617;28;20175;-49
2022/01/22 09:08:21;;;;;;;4.60;2.38;;;;;;;;;;5053708;28;20232;-50
2022/01/22 09:10:47;;;;;;;3.75;2.30;;;;;;;;;;5034616;28;20176;-50
2022/01/22 09:13:13;;;;;;;3.50;2.40;;;;;;;;;;5039301;28;20219;-49
2022/01/22 09:15:39;;;;;;;3.17;1.90;;;;;;;;;;5033699;28;20451;-50
2022/01/22 09:18:06;;;;;;;3.50;2.50;;;;;;;;;;5041038;28;20203;-50
2022/01/22 09:20:45;;;;;;;2.95;1.95;;;;;;;;;;5046936;28;20215;-50
2022/01/22 09:23:12;;;;;;;6.53;2.10;;;;;;;;;;5034085;28;20178;-49
2022/01/22 09:25:38;;;;;;;3.20;1.80;;;;;;;;;;5047736;28;20182;-50
2022/01/22 09:28:04;;;;;;;3.17;1.88;;;;;;;;;;5045922;28;20183;-50
2022/01/22 09:30:30;;;;;;;2.90;1.77;;;;;;;;;;5022448;28;20231;-50
2022/01/22 09:32:57;;;;;;;5.18;1.92;;;;;;;;;;5016141;28;20235;-50
2022/01/22 09:35:23;;;;;;;4.32;2.08;;;;;;;;;;5031750;28;20179;-50
2022/01/22 09:37:49;;;;;;;2.58;1.70;;;;;;;;;;5041651;28;20430;-49
2022/01/22 09:40:15;;;;;;;2.30;1.75;;;;;;;;;;5039028;28;20234;-49
2022/01/22 09:42:41;;;;;;;4.38;2.00;;;;;;;;;;5038722;28;20195;-50
2022/01/22 09:45:08;;;;;;;3.42;1.77;;;;;;;;;;5037911;28;20183;-49
2022/01/22 09:47:35;;;;;;;4.07;1.92;;;;;;;;;;5040071;28;20283;-50
2022/01/22 09:50:02;;;;;;;2.63;1.80;;;;;;;;;;5037659;28;20220;-50
2022/01/22 09:52:28;;;;;;;2.20;1.63;;;;;;;;;;5036545;28;20214;-49
2022/01/22 09:54:54;;;;;;;2.85;1.50;;;;;;;;;;5036308;28;20544;-49
2022/01/22 09:57:20;;;;;;;2.85;1.83;;;;;;;;;;5029743;28;20175;-49
2022/01/22 09:59:46;;;;;;;2.08;1.70;;;;;;;;;;5042854;28;20163;-50
2022/01/22 10:02:12;;;;;;;3.00;1.63;;;;;;;;;;5051581;28;20281;-50
2022/01/22 10:04:40;;;;;;;5.25;2.03;;;;;;;;;;5028587;28;20519;-49
2022/01/22 10:07:14;;;;;;;4.25;1.70;;;;;;;;;;5036780;28;20236;-49
2022/01/22 10:09:56;;;;;;;1.63;1.40;;;;;;;;;;5034242;28;20167;-49
2022/01/22 10:12:23;;;;;;;1.90;1.60;;;;;;;;;;5034005;28;20203;-49
2022/01/22 10:15:05;;;;;;;4.25;1.67;;;;;;;;;;5033892;28;20209;-49
2022/01/22 10:17:47;;;;;;;2.22;1.52;;;;;;;;;;5045714;28;20194;-50
2022/01/22 10:20:23;;;;;;;1.90;1.52;;;;;;;;;;5028416;28;20211;-50
2022/01/22 10:22:50;;;;;;;2.70;1.50;;;;;;;;;;5032656;28;20180;-50
2022/01/22 10:25:24;;;;;;;2.22;1.25;;;;;;;;;;5030412;28;20223;-50
2022/01/22 10:27:57;;;;;;;1.80;1.27;;;;;;;;;;5037154;28;20205;-50
2022/01/22 10:30:28;;;;;;;2.33;1.77;;;;;;;;;;5030891;28;20269;-49
2022/01/22 10:33:10;;;;;;;1.60;1.50;;;;;;;;;;5034030;28;20199;-50
2022/01/22 10:35:36;;;;;;;2.15;1.40;;;;;;;;;;5038680;28;20578;-50
2022/01/22 10:38:03;;;;;;;1.52;1.33;;;;;;;;;;5032076;28;20199;-50
2022/01/22 10:40:34;;;;;;;2.33;1.38;;;;;;;;;;5042357;28;20192;-49
2022/01/22 10:43:11;;;;;;;2.33;1.58;;;;;;;;;;5022278;28;20242;-49
2022/01/22 10:45:40;;;;;;;2.65;1.38;;;;;;;;;;5033462;28;20176;-50
2022/01/22 10:48:16;;;;;;;2.60;1.38;;;;;;;;;;5034481;28;20255;-50
2022/01/22 10:50:43;;;;;;;1.70;1.50;;;;;;;;;;5033786;28;20179;-50
2022/01/22 10:53:09;;;;;;;1.73;1.50;;;;;;;;;;5036483;28;20214;-50
2022/01/22 10:55:54;;;;;;;1.58;1.23;;;;;;;;;;5036716;28;20187;-49
2022/01/22 10:58:20;;;;;;;2.33;1.50;;;;;;;;;;5039164;28;20187;-50
2022/01/22 11:00:58;;;;;;;1.65;1.20;;;;;;;;;;5029243;28;20741;-50
2022/01/22 11:03:26;;;;;;;2.20;1.33;;;;;;;;;;5031321;28;20174;-49
2022/01/22 11:05:52;;;;;;;1.60;1.20;;;;;;;;;;5037773;28;20187;-50
2022/01/22 11:08:18;;;;;;;4.50;1.17;;;;;;;;;;5052935;28;20187;-49
2022/01/22 11:10:44;;;;;;;1.67;1.25;;;;;;;;;;5032160;28;20191;-49
2022/01/22 11:13:10;;;;;;;1.17;1.05;;;;;;;;;;5032655;28;20230;-50
2022/01/22 11:15:36;;;;;;;2.85;1.35;;;;;;;;;;5022099;28;20181;-49
2022/01/22 11:18:03;;;;;;;1.35;1.05;;;;;;;;;;5042762;28;21648;-50
2022/01/22 11:20:31;;;;;;;1.55;1.20;;;;;;;;;;5026910;28;20180;-50
2022/01/22 11:22:58;;;;;;;1.60;1.27;;;;;;;;;;5038428;28;20191;-50
2022/01/22 11:25:24;;;;;;;1.15;1.00;;;;;;;;;;5041300;28;20235;-50
2022/01/22 11:27:51;;;;;;;1.20;1.10;;;;;;;;;;5033550;28;20248;-50
2022/01/22 11:30:17;;;;;;;1.25;1.00;;;;;;;;;;5018383;28;20203;-50
2022/01/22 11:32:52;;;;;;;1.80;1.27;;;;;;;;;;5033831;28;20260;-49
2022/01/22 11:35:38;;;;;;;1.63;1.02;;;;;;;;;;5044921;28;20182;-50
2022/01/22 11:38:10;;;;;;;1.10;1.00;;;;;;;;;;5029961;28;20195;-49
2022/01/22 11:40:36;;;;;;;1.65;1.00;;;;;;;;;;5038856;28;20275;-50
2022/01/22 11:43:09;;;;;;;1.30;0.93;;;;;;;;;;5041383;28;20188;-50
2022/01/22 11:45:40;;;;;;;1.35;1.17;;;;;;;;;;5028200;28;20188;-50
2022/01/22 11:48:17;;;;;;;1.30;1.00;;;;;;;;;;5035826;28;20488;-50
2022/01/22 11:50:45;;;;;;;1.40;1.10;;;;;;;;;;5032542;28;20486;-49
2022/01/22 11:53:29;;;;;;;1.45;1.00;;;;;;;;;;5042791;28;20203;-49
2022/01/22 11:56:13;;;;;;;0.93;0.90;;;;;;;;;;5032241;28;20195;-49
2022/01/22 11:58:58;;;;;;;1.30;1.10;;;;;;;;;;5040370;28;20184;-50
2022/01/22 12:01:45;;;;;;;1.50;1.10;;;;;;;;;;5036423;28;20164;-49
2022/01/22 12:04:14;;;;;;;1.27;1.10;;;;;;;;;;5028285;28;20172;-50
2022/01/22 12:07:00;;;;;;;0.93;0.90;;;;;;;;;;5037908;28;20190;-50
2022/01/22 12:09:30;;;;;;;1.27;0.80;;;;;;;;;;5019660;28;20176;-50
2022/01/22 12:14:48;;;;;;;1.55;1.10;;;;;;;;;;5026405;28;20271;-49
2022/01/22 12:17:23;;;;;;;1.63;1.10;;;;;;;;;;5046002;28;20175;-50
2022/01/22 12:20:04;;;;;;;2.08;1.17;;;;;;;;;;5030681;28;20179;-49
2022/01/22 12:22:30;;;;;;;1.02;0.90;;;;;;;;;;5036290;28;20195;-50
2022/01/22 12:24:56;;;;;;;2.03;1.10;;;;;;;;;;5020273;28;20246;-49
2022/01/22 12:27:41;;;;;;;2.67;1.27;;;;;;;;;;5030724;28;20562;-49
2022/01/22 12:30:07;;;;;;;1.33;1.23;;;;;;;;;;5021350;28;20211;-49
2022/01/22 12:32:43;;;;;;;1.17;1.08;;;;;;;;;;5035261;28;20250;-50
2022/01/22 12:35:11;;;;;;;2.10;1.20;;;;;;;;;;5033590;28;20176;-50
2022/01/22 12:37:40;;;;;;;1.73;1.00;;;;;;;;;;5042285;28;20286;-50
2022/01/22 12:40:07;;;;;;;3.22;1.05;;;;;;;;;;5033101;28;20548;-50
2022/01/22 12:42:52;;;;;;;1.40;0.90;;;;;;;;;;5040837;28;20188;-49
2022/01/22 12:45:20;;;;;;;3.58;1.30;;;;;;;;;;5033930;28;20275;-49
2022/01/22 12:47:47;;;;;;;3.58;1.00;;;;;;;;;;5035762;28;20187;-49
2022/01/22 12:50:13;;;;;;;2.58;1.00;;;;;;;;;;5028225;28;20191;-50
2022/01/22 12:52:45;;;;;;;1.38;0.93;;;;;;;;;;5035896;28;20242;-50
2022/01/22 12:55:23;;;;;;;1.70;0.95;;;;;;;;;;5028257;28;20771;-49
2022/01/22 12:57:49;;;;;;;1.17;1.08;;;;;;;;;;5027464;28;20207;-50
2022/01/22 13:00:18;;;;;;;3.47;1.23;;;;;;;;;;5038756;28;20183;-49
2022/01/22 13:02:45;;;;;;;1.67;1.10;;;;;;;;;;5037878;28;20237;-50
2022/01/22 13:05:12;;;;;;;2.28;1.27;;;;;;;;;;5055687;28;20175;-50
2022/01/22 13:07:38;;;;;;;5.68;1.20;;;;;;;;;;5048217;28;20226;-50
2022/01/22 13:10:07;;;;;;;4.93;1.65;;;;;;;;;;5045722;28;20225;-49
2022/01/22 13:12:34;;;;;;;4.05;1.10;;;;;;;;;;5022070;28;20200;-49
2022/01/22 13:15:00;;;;;;;4.93;1.30;;;;;;;;;;5034574;28;20238;-49
2022/01/22 13:17:30;;;;;;;2.38;1.20;;;;;;;;;;5041342;28;20175;-49
2022/01/22 13:19:56;;;;;;;1.88;1.30;;;;;;;;;;5052016;28;20292;-50
2022/01/22 13:22:30;;;;;;;1.35;1.23;;;;;;;;;;5041377;28;20279;-50
2022/01/22 13:25:03;;;;;;;2.80;1.20;;;;;;;;;;5030639;28;20184;-49
2022/01/22 13:27:31;;;;;;;1.42;1.20;;;;;;;;;;5034986;28;20243;-49
2022/01/22 13:29:57;;;;;;;1.52;1.00;;;;;;;;;;5014804;28;20196;-49
2022/01/22 13:32:46;;;;;;;1.83;1.30;;;;;;;;;;5032354;28;20257;-50
2022/01/22 13:38:15;;;;;;;2.05;1.10;;;;;;;;;;5035068;28;20206;-50
2022/01/22 13:45:01;;;;;;;1.55;1.30;;;;;;;;;;5028047;28;20176;-50
2022/01/22 13:49:16;;;;;;;2.20;1.40;;;;;;;;;;5033318;28;20206;-49
2022/01/22 13:51:43;;;;;;;1.55;1.45;;;;;;;;;;5034944;28;20208;-50
2022/01/22 13:54:09;;;;;;;1.73;1.55;;;;;;;;;;5038962;28;20172;-49
2022/01/22 13:56:45;;;;;;;3.40;1.58;;;;;;;;;;5034641;28;20191;-49
2022/01/22 13:59:19;;;;;;;3.22;1.83;;;;;;;;;;5032893;28;20179;-49
2022/01/22 14:02:05;;;;;;;4.15;2.08;;;;;;;;;;5035005;28;20976;-49
2022/01/22 14:04:38;;;;;;;4.05;2.20;;;;;;;;;;5019900;28;20188;-50
2022/01/22 14:07:13;;;;;;;3.05;2.50;;;;;;;;;;5018473;28;20234;-49
2022/01/22 14:09:39;;;;;;;5.32;2.53;;;;;;;;;;5031430;28;20175;-50
2022/01/22 14:12:12;;;;;;;3.25;2.67;;;;;;;;;;5034462;28;20230;-50
2022/01/22 14:14:56;;;;;;;6.82;4.75;;;;;;;;;;5029510;28;20270;-49
2022/01/22 14:17:25;;;;;;;6.95;4.43;;;;;;;;;;5034478;28;20192;-49
2022/01/22 14:20:01;;;;;;;7.40;4.57;;;;;;;;;;5026537;28;20168;-50
2022/01/22 14:22:27;;;;;;;7.57;4.95;;;;;;;;;;5031266;28;20187;-49
2022/01/22 14:25:08;;;;;;;5.95;4.75;;;;;;;;;;5032140;28;20202;-50
2022/01/22 14:27:34;;;;;;;7.80;5.22;;;;;;;;;;5032206;28;20195;-49
2022/01/22 14:30:00;;;;;;;6.20;5.10;;;;;;;;;;5032210;28;20176;-49
2022/01/22 14:32:27;;;;;;;5.38;4.85;;;;;;;;;;5034356;28;20211;-50
2022/01/22 14:34:53;;;;;;;7.25;4.72;;;;;;;;;;5040657;28;20167;-50
2022/01/22 14:37:28;;;;;;;7.90;4.68;;;;;;;;;;5029445;28;20184;-49
2022/01/22 14:45:23;;;;;;;6.60;5.20;;;;;;;;;;5022286;28;20213;-49
2022/01/22 14:47:54;;;;;;;7.50;4.90;;;;;;;;;;5039445;28;20176;-49
2022/01/22 14:50:20;;;;;;;5.20;4.35;;;;;;;;;;5033697;28;20171;-49
2022/01/22 14:52:47;;;;;;;6.32;4.63;;;;;;;;;;5029995;28;20536;-50
2022/01/22 14:55:14;;;;;;;9.18;4.60;;;;;;;;;;5033144;28;20191;-49
2022/01/22 14:57:41;;;;;;;10.10;4.70;;;;;;;;;;5033792;28;20187;-49
2022/01/22 15:00:08;;;;;;;6.30;4.40;;;;;;;;;;5033156;28;20198;-49
2022/01/22 15:02:35;;;;;;;9.90;5.07;;;;;;;;;;5041505;28;20279;-49
2022/01/22 15:05:01;;;;;;;7.80;4.80;;;;;;;;;;5036835;28;20179;-50
2022/01/22 15:07:27;;;;;;;6.25;4.25;;;;;;;;;;5035032;28;20843;-49
2022/01/22 15:09:53;;;;;;;8.05;4.40;;;;;;;;;;5030844;28;20187;-49
2022/01/22 15:12:19;;;;;;;10.00;4.28;;;;;;;;;;5032773;28;20210;-49
2022/01/22 15:14:47;;;;;;;7.07;4.38;;;;;;;;;;5036552;28;20168;-50
2022/01/22 15:19:40;;;;;;;8.93;4.63;;;;;;;;;;5036304;28;20192;-49
2022/01/22 15:22:09;;;;;;;6.18;3.97;;;;;;;;;;5041287;28;20187;-50
2022/01/22 15:24:36;;;;;;;8.13;4.43;;;;;;;;;;5037235;28;20211;-49
2022/01/22 15:27:02;;;;;;;6.50;4.15;;;;;;;;;;5029729;28;20194;-50
2022/01/22 15:29:29;;;;;;;8.10;4.25;;;;;;;;;;5032861;28;20216;-50
2022/01/22 15:37:00;;;;;;;16.55;6.00;;;;;;;;;;5041877;28;20182;-50
2022/01/22 15:39:27;;;;;;;32.55;10.23;;;;;;;;;;5036845;28;20601;-50
2022/01/22 15:41:53;;;;;;;45.95;11.85;;;;;;;;;;5034992;28;20278;-49
2022/01/22 15:44:20;;;;;;;51.55;13.90;;;;;;;;;;5028946;28;20185;-49
2022/01/22 15:46:48;;;;;;;49.30;13.52;;;;;;;;;;5029666;28;20185;-49
2022/01/22 15:49:17;;;;;;;48.95;15.38;;;;;;;;;;5038451;28;20176;-50
2022/01/22 15:51:44;;;;;;;46.40;13.82;;;;;;;;;;5055246;28;20207;-50
2022/01/22 15:54:10;;;;;;;50.55;13.57;;;;;;;;;;5038624;28;20172;-50
2022/01/22 15:56:37;;;;;;;47.20;13.55;;;;;;;;;;5041372;28;20176;-50
2022/01/22 15:59:06;;;;;;;44.92;13.25;;;;;;;;;;5036195;28;20198;-50
2022/01/22 16:01:33;;;;;;;35.05;13.38;;;;;;;;;;5035618;28;20207;-49
2022/01/22 16:04:00;;;;;;;37.22;12.02;;;;;;;;;;5038505;28;20175;-50
2022/01/22 16:06:37;;;;;;;42.42;12.15;;;;;;;;;;5053522;28;20260;-50
2022/01/22 16:09:07;;;;;;;39.10;12.15;;;;;;;;;;5036608;28;20199;-50
2022/01/22 16:11:33;;;;;;;31.38;10.68;;;;;;;;;;5036503;28;20176;-50
2022/01/22 16:13:59;;;;;;;30.00;10.10;;;;;;;;;;5043575;28;20190;-49
2022/01/22 16:16:25;;;;;;;26.23;10.68;;;;;;;;;;5051548;28;20456;-49
2022/01/22 16:18:51;;;;;;;33.58;10.30;;;;;;;;;;5043692;28;20179;-49
2022/01/22 16:21:17;;;;;;;28.88;10.15;;;;;;;;;;5026980;28;20449;-50
2022/01/22 16:23:43;;;;;;;32.70;10.00;;;;;;;;;;5035918;28;20186;-49
2022/01/22 16:26:09;;;;;;;27.15;9.88;;;;;;;;;;5036206;28;20178;-50
2022/01/22 16:28:34;;;;;;;27.33;9.55;;;;;;;;;;5041235;28;20489;-49
2022/01/22 16:31:00;;;;;;;24.17;9.02;;;;;;;;;;5055221;28;20163;-49
2022/01/22 16:33:26;;;;;;;27.98;9.35;;;;;;;;;;5045689;28;20261;-50
2022/01/22 16:35:53;;;;;;;27.20;9.18;;;;;;;;;;5021048;28;20180;-49
2022/01/22 16:38:20;;;;;;;26.92;9.20;;;;;;;;;;5021857;28;20176;-49
2022/01/22 16:40:47;;;;;;;22.02;7.95;;;;;;;;;;5027577;28;20183;-50
2022/01/22 16:43:14;;;;;;;25.65;8.88;;;;;;;;;;5043711;28;20195;-50
2022/01/22 16:56:24;;;;;;;21.25;8.68;;;;;;;;;;5028362;28;20219;-49
2022/01/22 16:58:52;;;;;;;20.33;8.93;;;;;;;;;;5035512;28;20200;-50
2022/01/22 17:01:26;;;;;;;18.75;8.07;;;;;;;;;;5042049;28;20168;-50
2022/01/22 17:03:54;;;;;;;17.33;7.78;;;;;;;;;;5036067;28;20175;-49
2022/01/22 17:06:20;;;;;;;17.10;7.10;;;;;;;;;;5047272;28;20175;-50
2022/01/22 17:08:49;;;;;;;16.83;6.95;;;;;;;;;;5030177;28;20267;-49
2022/01/22 17:11:22;;;;;;;16.95;7.20;;;;;;;;;;5016043;28;20186;-49
2022/01/22 17:16:32;;;;;;;16.40;6.78;;;;;;;;;;5020879;28;20244;-50
2022/01/22 17:18:58;;;;;;;12.65;6.38;;;;;;;;;;5035255;28;20271;-49
2022/01/22 17:21:25;;;;;;;11.55;6.75;;;;;;;;;;5034256;28;20444;-50
2022/01/22 17:23:51;;;;;;;13.55;6.57;;;;;;;;;;5046304;28;20171;-49
2022/01/22 17:26:17;;;;;;;14.15;6.55;;;;;;;;;;5044130;28;20267;-49
2022/01/22 17:28:43;;;;;;;11.77;6.20;;;;;;;;;;5046903;28;20266;-50
2022/01/22 17:31:09;;;;;;;12.05;6.35;;;;;;;;;;5048256;28;20855;-49
2022/01/22 17:33:35;;;;;;;12.30;6.40;;;;;;;;;;5033911;28;20669;-50
2022/01/22 17:36:01;;;;;;;12.35;6.35;;;;;;;;;;5034452;28;20305;-50
2022/01/22 17:38:27;;;;;;;10.55;6.55;;;;;;;;;;5047923;28;20557;-49
2022/01/22 17:41:04;;;;;;;11.80;6.95;;;;;;;;;;5040550;28;20187;-50
2022/01/22 17:43:32;;;;;;;11.60;6.38;;;;;;;;;;5027927;28;20262;-49
2022/01/22 17:45:58;;;;;;;13.30;7.35;;;;;;;;;;5026706;28;20190;-49
2022/01/22 17:48:24;;;;;;;11.35;6.30;;;;;;;;;;5046199;28;20644;-50